createdAt,value
2022-07-30T00:01:39.263Z,93.50
2022-07-30T00:06:28.862Z,93.08
2022-07-30T00:11:19.072Z,93.56
2022-07-30T00:16:13.381Z,93.54
2022-07-30T00:21:03.102Z,94.16
2022-07-30T00:25:52.963Z,94.27
2022-07-30T00:30:43.193Z,94.07
2022-07-30T00:35:35.883Z,94.15
2022-07-30T00:40:25.618Z,94.97
2022-07-30T00:45:16.881Z,94.84
2022-07-30T00:50:07.931Z,95.05
2022-07-30T00:55:00.629Z,95.29
2022-07-30T00:59:50.262Z,95.02
2022-07-30T01:04:39.899Z,94.91
2022-07-30T01:09:29.594Z,95.20
2022-07-30T01:14:22.720Z,95.75
2022-07-30T01:19:31.190Z,94.70
2022-07-30T01:24:37.990Z,95.11
2022-07-30T01:29:32.121Z,95.59
2022-07-30T01:34:22.874Z,96.07
2022-07-30T01:39:12.777Z,96.01
2022-07-30T01:44:04.788Z,95.68
2022-07-30T01:48:59.563Z,95.42
2022-07-30T01:53:54.656Z,94.98
2022-07-30T01:58:46.458Z,94.40
2022-07-30T02:03:42.485Z,94.16
2022-07-30T02:08:41.731Z,94.61
2022-07-30T02:13:33.120Z,94.93
2022-07-30T02:18:25.936Z,95.00
2022-07-30T02:23:19.526Z,95.03
2022-07-30T02:28:15.762Z,95.81
2022-07-30T02:33:11.901Z,94.97
2022-07-30T02:38:03.245Z,95.79
2022-07-30T02:42:56.053Z,95.56
2022-07-30T02:47:54.231Z,96.15
2022-07-30T02:52:46.291Z,97.03
2022-07-30T02:57:36.994Z,96.54
2022-07-30T03:02:34.753Z,95.38
2022-07-30T03:07:31.284Z,96.09
2022-07-30T03:12:21.825Z,96.98
2022-07-30T03:17:13.726Z,97.21
2022-07-30T03:22:06.142Z,97.30
2022-07-30T03:27:01.168Z,96.73
2022-07-30T03:31:52.614Z,96.96
2022-07-30T03:36:44.352Z,96.99
2022-07-30T03:41:35.279Z,96.40
2022-07-30T03:46:29.917Z,95.36
2022-07-30T03:51:20.504Z,95.04
2022-07-30T03:56:11.328Z,95.43
2022-07-30T04:01:17.539Z,95.10
2022-07-30T04:06:10.558Z,95.65
2022-07-30T04:11:00.752Z,96.35
2022-07-30T04:16:40.982Z,96.48
2022-07-30T04:21:29.710Z,98.06
2022-07-30T04:26:20.612Z,97.19
2022-07-30T04:31:11.506Z,97.38
2022-07-30T04:36:01.251Z,97.71
2022-07-30T04:40:58.130Z,97.52
2022-07-30T04:45:50.197Z,97.79
2022-07-30T04:50:45.511Z,97.90
2022-07-30T04:55:38.771Z,98.52
2022-07-30T05:00:32.622Z,98.38
2022-07-30T05:05:24.281Z,98.33
2022-07-30T05:10:15.759Z,98.72
2022-07-30T05:15:06.392Z,98.90
2022-07-30T05:19:58.907Z,98.85
2022-07-30T05:24:51.181Z,98.66
2022-07-30T05:29:40.931Z,98.42
2022-07-30T05:34:35.796Z,97.77
2022-07-30T05:39:28.071Z,97.99
2022-07-30T05:44:43.924Z,95.81
2022-07-30T05:49:37.118Z,95.60
2022-07-30T05:54:37.372Z,95.58
2022-07-30T05:59:47.531Z,95.24
2022-07-30T06:04:47.080Z,94.47
2022-07-30T06:09:39.973Z,93.89
2022-07-30T06:14:32.241Z,94.13
2022-07-30T06:19:22.337Z,92.91
2022-07-30T06:24:16.662Z,92.33
2022-07-30T06:29:19.858Z,91.95
2022-07-30T06:34:13.515Z,90.84
2022-07-30T06:39:05.892Z,88.85
2022-07-30T06:44:27.663Z,87.98
2022-07-30T06:49:36.927Z,86.32
2022-07-30T06:54:27.705Z,86.26
2022-07-30T06:59:17.407Z,84.85
2022-07-30T07:04:10.798Z,85.04
2022-07-30T07:09:02.545Z,82.38
2022-07-30T07:14:04.936Z,82.56
2022-07-30T07:18:58.709Z,81.26
2022-07-30T07:23:54.223Z,79.75
2022-07-30T07:29:05.119Z,77.16
2022-07-30T07:33:57.152Z,77.57
2022-07-30T07:38:47.408Z,77.65
2022-07-30T07:43:40.637Z,77.06
2022-07-30T07:48:33.646Z,76.29
2022-07-30T07:53:40.456Z,77.84
2022-07-30T07:58:31.094Z,75.55
2022-07-30T08:03:26.555Z,76.12
2022-07-30T08:08:17.939Z,74.77
2022-07-30T08:13:48.970Z,72.04
2022-07-30T08:18:57.135Z,69.01
2022-07-30T08:23:57.368Z,67.68
2022-07-30T08:28:47.090Z,64.88
2022-07-30T08:33:37.051Z,63.56
2022-07-30T08:38:30.149Z,63.68
2022-07-30T08:43:21.511Z,62.77
2022-07-30T08:48:16.668Z,60.59
2022-07-30T08:53:09.623Z,59.39
2022-07-30T08:58:03.194Z,57.39
2022-07-30T09:02:53.289Z,56.29
2022-07-30T09:07:44.050Z,54.85
2022-07-30T09:12:43.151Z,53.71
2022-07-30T09:17:53.421Z,52.13
2022-07-30T09:22:46.327Z,52.23
2022-07-30T09:27:54.574Z,49.76
2022-07-30T09:33:05.678Z,47.82
2022-07-30T09:38:18.051Z,46.75
2022-07-30T09:43:12.504Z,45.97
2022-07-30T09:48:24.048Z,45.81
2022-07-30T09:53:15.916Z,45.39
2022-07-30T09:58:07.495Z,45.25
2022-07-30T10:03:00.488Z,44.60
2022-07-30T10:08:23.745Z,44.27
2022-07-30T10:13:20.503Z,42.60
2022-07-30T10:18:13.637Z,42.06
2022-07-30T10:23:29.784Z,42.32
2022-07-30T10:29:02.605Z,41.28
2022-07-30T10:33:53.093Z,41.11
2022-07-30T10:38:52.668Z,41.42
2022-07-30T10:44:09.116Z,42.21
2022-07-30T10:49:11.817Z,42.10
2022-07-30T10:54:42.777Z,43.16
2022-07-30T11:00:05.666Z,43.55
2022-07-30T11:05:44.185Z,44.56
2022-07-30T11:10:44.033Z,45.22
2022-07-30T11:15:57.484Z,46.08
2022-07-30T11:21:21.279Z,45.32
2022-07-30T11:26:50.725Z,45.33
2022-07-30T11:31:56.687Z,46.26
2022-07-30T11:37:19.093Z,46.70
2022-07-30T11:42:31.491Z,48.21
2022-07-30T11:47:22.575Z,49.11
2022-07-30T11:52:12.451Z,49.91
2022-07-30T11:57:04.638Z,50.60
2022-07-30T12:02:03.118Z,51.45
2022-07-30T12:06:55.547Z,50.94
2022-07-30T12:11:45.395Z,50.76
2022-07-30T12:16:36.403Z,49.58
2022-07-30T12:21:29.238Z,48.54
2022-07-30T12:26:27.411Z,48.17
2022-07-30T12:31:18.930Z,47.23
2022-07-30T12:36:10.415Z,46.21
2022-07-30T12:41:05.380Z,45.46
2022-07-30T12:46:01.342Z,44.74
2022-07-30T12:50:51.040Z,44.12
2022-07-30T12:55:47.221Z,44.59
2022-07-30T13:00:52.332Z,42.63
2022-07-30T13:05:46.893Z,42.90
2022-07-30T13:10:36.979Z,45.04
2022-07-30T13:15:26.736Z,46.00
2022-07-30T13:20:21.205Z,45.80
2022-07-30T13:25:12.909Z,46.17
2022-07-30T13:30:02.660Z,46.00
2022-07-30T13:34:52.302Z,45.19
2022-07-30T13:39:44.778Z,45.50
2022-07-30T13:44:34.476Z,45.08
2022-07-30T13:49:24.343Z,44.58
2022-07-30T13:54:20.609Z,44.45
2022-07-30T13:59:13.149Z,44.80
2022-07-30T14:04:02.903Z,44.14
2022-07-30T14:08:52.619Z,43.72
2022-07-30T14:13:42.494Z,43.18
2022-07-30T14:18:34.906Z,42.83
2022-07-30T14:23:27.154Z,43.57
2022-07-30T14:28:16.857Z,43.07
2022-07-30T14:33:06.673Z,43.23
2022-07-30T14:37:59.011Z,44.01
2022-07-30T14:42:49.255Z,44.21
2022-07-30T14:47:39.466Z,44.14
2022-07-30T14:52:29.246Z,43.19
2022-07-30T14:57:21.832Z,43.36
2022-07-30T15:02:11.741Z,43.04
2022-07-30T15:07:02.129Z,42.96
2022-07-30T15:12:08.260Z,43.26
2022-07-30T15:17:08.916Z,43.29
2022-07-30T15:21:59.133Z,44.12
2022-07-30T15:26:48.928Z,45.10
2022-07-30T15:31:39.280Z,45.62
2022-07-30T15:36:31.959Z,45.66
2022-07-30T15:41:21.879Z,46.63
2022-07-30T15:46:11.957Z,46.56
2022-07-30T15:51:04.431Z,46.14
2022-07-30T15:55:56.780Z,46.87
2022-07-30T16:00:46.721Z,47.56
2022-07-30T16:05:52.354Z,47.62
2022-07-30T16:10:43.283Z,48.26
2022-07-30T16:15:35.668Z,49.23
2022-07-30T16:20:25.432Z,50.34
2022-07-30T16:25:15.410Z,51.51
2022-07-30T16:30:05.466Z,51.29
2022-07-30T16:34:57.714Z,52.00
2022-07-30T16:39:47.487Z,49.71
2022-07-30T16:44:37.455Z,49.52
2022-07-30T16:49:28.497Z,49.23
2022-07-30T16:54:23.924Z,49.63
2022-07-30T16:59:14.542Z,49.71
2022-07-30T17:04:04.342Z,51.16
2022-07-30T17:08:57.380Z,50.61
2022-07-30T17:13:50.289Z,49.32
2022-07-30T17:18:40.135Z,50.15
2022-07-30T17:23:30.460Z,50.00
2022-07-30T17:28:26.993Z,50.05
2022-07-30T17:33:19.813Z,51.82
2022-07-30T17:38:10.047Z,51.48
2022-07-30T17:43:04.069Z,51.69
2022-07-30T17:47:54.239Z,52.00
2022-07-30T17:52:46.708Z,52.67
2022-07-30T17:57:36.308Z,52.44
2022-07-30T18:02:31.852Z,53.58
2022-07-30T18:07:22.558Z,53.79
2022-07-30T18:12:21.255Z,53.41
2022-07-30T18:17:14.419Z,53.73
2022-07-30T18:22:04.883Z,54.11
2022-07-30T18:26:56.524Z,54.62
2022-07-30T18:31:49.011Z,54.81
2022-07-30T18:36:38.678Z,55.95
2022-07-30T18:41:30.110Z,55.93
2022-07-30T18:46:21.244Z,56.24
2022-07-30T18:51:14.244Z,56.21
2022-07-30T18:56:04.637Z,57.12
2022-07-30T19:00:54.405Z,57.18
2022-07-30T19:05:44.579Z,57.35
2022-07-30T19:10:37.560Z,58.07
2022-07-30T19:15:31.499Z,57.99
2022-07-30T19:20:22.514Z,57.92
2022-07-30T19:25:13.316Z,57.66
2022-07-30T19:30:06.433Z,57.09
2022-07-30T19:34:56.462Z,56.89
2022-07-30T19:40:06.457Z,57.49
2022-07-30T19:44:57.798Z,57.96
2022-07-30T19:49:55.568Z,56.95
2022-07-30T19:54:47.108Z,57.48
2022-07-30T19:59:45.547Z,57.41
2022-07-30T20:04:46.775Z,57.81
2022-07-30T20:09:42.666Z,58.21
2022-07-30T20:14:33.327Z,58.42
2022-07-30T20:19:26.414Z,58.77
2022-07-30T20:24:25.792Z,59.66
2022-07-30T20:29:19.201Z,60.22
2022-07-30T20:34:16.222Z,61.83
2022-07-30T20:39:18.394Z,61.89
2022-07-30T20:44:14.947Z,62.81
2022-07-30T20:49:24.323Z,59.72
2022-07-30T20:54:25.449Z,56.36
2022-07-30T20:59:16.529Z,55.49
2022-07-30T21:04:07.873Z,54.50
2022-07-30T21:09:01.340Z,54.46
2022-07-30T21:13:51.156Z,54.87
2022-07-30T21:18:41.666Z,54.95
2022-07-30T21:23:38.627Z,54.47
2022-07-30T21:28:35.461Z,54.86
2022-07-30T21:33:31.239Z,54.76
2022-07-30T21:38:21.745Z,53.88
2022-07-30T21:43:13.309Z,54.44
2022-07-30T21:48:05.510Z,54.18
2022-07-30T21:52:55.125Z,54.32
2022-07-30T21:57:44.744Z,54.19
2022-07-30T22:02:34.440Z,55.19
2022-07-30T22:07:26.924Z,55.28
2022-07-30T22:12:18.071Z,54.91
2022-07-30T22:17:22.860Z,55.16
2022-07-30T22:22:27.350Z,55.76
2022-07-30T22:27:21.937Z,55.50
2022-07-30T22:32:11.738Z,55.71
2022-07-30T22:37:01.973Z,56.24
2022-07-30T22:41:51.850Z,56.63
2022-07-30T22:46:44.091Z,56.62
2022-07-30T22:52:01.858Z,57.28
2022-07-30T22:56:46.076Z,57.84
2022-07-30T23:01:38.954Z,58.16
2022-07-30T23:06:35.272Z,58.11
2022-07-30T23:11:24.911Z,59.96
2022-07-30T23:16:26.827Z,63.18
2022-07-30T23:21:16.858Z,65.21
2022-07-30T23:26:09.476Z,66.71
2022-07-30T23:30:59.484Z,67.87
2022-07-30T23:35:49.410Z,67.69
2022-07-30T23:40:39.056Z,68.02
2022-07-30T23:45:31.440Z,68.02
2022-07-30T23:50:21.243Z,67.83
2022-07-30T23:55:12.017Z,67.49
